sensor_id;sensor_type;location;lat;lon;timestamp;temperature;humidity
11491;DHT22;5802;52.832;4.758;2023-07-16T00:01:59;24.80;50.30
11491;DHT22;5802;52.832;4.758;2023-07-16T00:04:26;24.80;50.40
11491;DHT22;5802;52.832;4.758;2023-07-16T00:06:53;24.80;50.40
11491;DHT22;5802;52.832;4.758;2023-07-16T00:09:19;24.70;50.40
11491;DHT22;5802;52.832;4.758;2023-07-16T00:11:47;24.70;50.40
11491;DHT22;5802;52.832;4.758;2023-07-16T00:14:14;24.70;50.40
11491;DHT22;5802;52.832;4.758;2023-07-16T00:16:41;24.70;50.40
11491;DHT22;5802;52.832;4.758;2023-07-16T00:19:10;24.70;50.40
11491;DHT22;5802;52.832;4.758;2023-07-16T00:21:37;24.70;50.40
11491;DHT22;5802;52.832;4.758;2023-07-16T00:24:04;24.70;50.40
11491;DHT22;5802;52.832;4.758;2023-07-16T00:26:31;24.70;50.40
11491;DHT22;5802;52.832;4.758;2023-07-16T00:28:59;24.70;50.50
11491;DHT22;5802;52.832;4.758;2023-07-16T00:31:26;24.70;50.40
11491;DHT22;5802;52.832;4.758;2023-07-16T00:33:52;24.70;50.50
11491;DHT22;5802;52.832;4.758;2023-07-16T00:36:19;24.70;50.50
11491;DHT22;5802;52.832;4.758;2023-07-16T00:38:45;24.70;50.50
11491;DHT22;5802;52.832;4.758;2023-07-16T00:41:13;24.70;50.50
11491;DHT22;5802;52.832;4.758;2023-07-16T00:43:40;24.70;50.50
11491;DHT22;5802;52.832;4.758;2023-07-16T00:46:08;24.70;50.50
11491;DHT22;5802;52.832;4.758;2023-07-16T00:48:35;24.70;50.50
11491;DHT22;5802;52.832;4.758;2023-07-16T00:51:03;24.60;50.50
11491;DHT22;5802;52.832;4.758;2023-07-16T00:53:30;24.60;50.50
11491;DHT22;5802;52.832;4.758;2023-07-16T00:56:00;24.60;50.50
11491;DHT22;5802;52.832;4.758;2023-07-16T00:58:27;24.60;50.50
11491;DHT22;5802;52.832;4.758;2023-07-16T01:00:54;24.60;50.50
11491;DHT22;5802;52.832;4.758;2023-07-16T01:03:22;24.60;50.50
11491;DHT22;5802;52.832;4.758;2023-07-16T01:06:00;24.60;50.50
11491;DHT22;5802;52.832;4.758;2023-07-16T01:08:32;24.60;50.50
11491;DHT22;5802;52.832;4.758;2023-07-16T01:11:02;24.60;50.60
11491;DHT22;5802;52.832;4.758;2023-07-16T01:13:29;24.60;50.60
11491;DHT22;5802;52.832;4.758;2023-07-16T01:15:57;24.60;50.60
11491;DHT22;5802;52.832;4.758;2023-07-16T01:18:25;24.60;50.60
11491;DHT22;5802;52.832;4.758;2023-07-16T01:20:52;24.50;50.50
11491;DHT22;5802;52.832;4.758;2023-07-16T01:23:27;24.50;50.50
11491;DHT22;5802;52.832;4.758;2023-07-16T01:26:05;24.50;51.10
11491;DHT22;5802;52.832;4.758;2023-07-16T01:31:36;24.50;50.60
11491;DHT22;5802;52.832;4.758;2023-07-16T01:34:04;24.50;50.60
11491;DHT22;5802;52.832;4.758;2023-07-16T01:36:34;24.50;51.20
11491;DHT22;5802;52.832;4.758;2023-07-16T01:39:02;24.50;50.60
11491;DHT22;5802;52.832;4.758;2023-07-16T01:41:29;24.50;50.50
11491;DHT22;5802;52.832;4.758;2023-07-16T01:43:56;24.50;50.60
11491;DHT22;5802;52.832;4.758;2023-07-16T01:46:23;24.50;50.50
11491;DHT22;5802;52.832;4.758;2023-07-16T01:48:51;24.50;50.50
11491;DHT22;5802;52.832;4.758;2023-07-16T01:51:18;24.50;50.60
11491;DHT22;5802;52.832;4.758;2023-07-16T01:53:45;24.50;50.50
11491;DHT22;5802;52.832;4.758;2023-07-16T01:56:12;24.50;50.60
11491;DHT22;5802;52.832;4.758;2023-07-16T01:58:40;24.50;50.50
11491;DHT22;5802;52.832;4.758;2023-07-16T02:01:06;24.50;50.50
11491;DHT22;5802;52.832;4.758;2023-07-16T02:03:33;24.40;50.50
11491;DHT22;5802;52.832;4.758;2023-07-16T02:06:04;24.40;50.50
11491;DHT22;5802;52.832;4.758;2023-07-16T02:08:31;24.40;50.50
11491;DHT22;5802;52.832;4.758;2023-07-16T02:10:58;24.40;50.50
11491;DHT22;5802;52.832;4.758;2023-07-16T02:13:25;24.40;50.50
11491;DHT22;5802;52.832;4.758;2023-07-16T02:15:52;24.40;50.60
11491;DHT22;5802;52.832;4.758;2023-07-16T02:18:18;24.40;50.60
11491;DHT22;5802;52.832;4.758;2023-07-16T02:20:45;24.40;50.60
11491;DHT22;5802;52.832;4.758;2023-07-16T02:23:13;24.30;50.60
11491;DHT22;5802;52.832;4.758;2023-07-16T02:25:40;24.30;50.60
11491;DHT22;5802;52.832;4.758;2023-07-16T02:28:06;24.30;50.60
11491;DHT22;5802;52.832;4.758;2023-07-16T02:30:33;24.30;50.60
11491;DHT22;5802;52.832;4.758;2023-07-16T02:33:00;24.30;50.70
11491;DHT22;5802;52.832;4.758;2023-07-16T02:35:26;24.30;50.70
11491;DHT22;5802;52.832;4.758;2023-07-16T02:37:53;24.30;50.70
11491;DHT22;5802;52.832;4.758;2023-07-16T02:40:23;24.30;50.70
11491;DHT22;5802;52.832;4.758;2023-07-16T02:42:50;24.30;50.70
11491;DHT22;5802;52.832;4.758;2023-07-16T02:45:17;24.30;50.70
11491;DHT22;5802;52.832;4.758;2023-07-16T02:47:44;24.30;51.10
11491;DHT22;5802;52.832;4.758;2023-07-16T02:50:11;24.30;50.70
11491;DHT22;5802;52.832;4.758;2023-07-16T02:52:37;24.30;50.80
11491;DHT22;5802;52.832;4.758;2023-07-16T02:55:05;24.30;50.80
11491;DHT22;5802;52.832;4.758;2023-07-16T02:57:33;24.30;50.80
11491;DHT22;5802;52.832;4.758;2023-07-16T03:00:00;24.20;50.80
11491;DHT22;5802;52.832;4.758;2023-07-16T03:02:26;24.20;50.80
11491;DHT22;5802;52.832;4.758;2023-07-16T03:04:53;24.20;50.80
11491;DHT22;5802;52.832;4.758;2023-07-16T03:07:20;24.20;50.80
11491;DHT22;5802;52.832;4.758;2023-07-16T03:09:47;24.20;50.80
11491;DHT22;5802;52.832;4.758;2023-07-16T03:12:13;24.20;50.80
11491;DHT22;5802;52.832;4.758;2023-07-16T03:14:41;24.20;50.80
11491;DHT22;5802;52.832;4.758;2023-07-16T03:17:08;24.20;50.90
11491;DHT22;5802;52.832;4.758;2023-07-16T03:19:35;24.20;50.90
11491;DHT22;5802;52.832;4.758;2023-07-16T03:22:02;24.20;50.90
11491;DHT22;5802;52.832;4.758;2023-07-16T03:24:29;24.20;50.90
11491;DHT22;5802;52.832;4.758;2023-07-16T03:26:56;24.20;50.90
11491;DHT22;5802;52.832;4.758;2023-07-16T03:29:22;24.20;50.90
11491;DHT22;5802;52.832;4.758;2023-07-16T03:31:50;24.20;50.90
11491;DHT22;5802;52.832;4.758;2023-07-16T03:34:17;24.20;50.90
11491;DHT22;5802;52.832;4.758;2023-07-16T03:36:44;24.20;50.90
11491;DHT22;5802;52.832;4.758;2023-07-16T03:39:11;24.20;50.90
11491;DHT22;5802;52.832;4.758;2023-07-16T03:41:38;24.20;50.90
11491;DHT22;5802;52.832;4.758;2023-07-16T03:44:06;24.20;50.90
11491;DHT22;5802;52.832;4.758;2023-07-16T03:46:32;24.20;50.90
11491;DHT22;5802;52.832;4.758;2023-07-16T03:49:00;24.10;50.90
11491;DHT22;5802;52.832;4.758;2023-07-16T03:51:27;24.10;50.90
11491;DHT22;5802;52.832;4.758;2023-07-16T03:53:54;24.10;50.90
11491;DHT22;5802;52.832;4.758;2023-07-16T03:56:21;24.10;50.90
11491;DHT22;5802;52.832;4.758;2023-07-16T03:58:48;24.10;51.00
11491;DHT22;5802;52.832;4.758;2023-07-16T04:01:15;24.20;51.30
11491;DHT22;5802;52.832;4.758;2023-07-16T04:03:42;24.10;51.00
11491;DHT22;5802;52.832;4.758;2023-07-16T04:06:10;24.10;51.00
11491;DHT22;5802;52.832;4.758;2023-07-16T04:08:37;24.10;51.00
11491;DHT22;5802;52.832;4.758;2023-07-16T04:11:04;24.10;51.10
11491;DHT22;5802;52.832;4.758;2023-07-16T04:13:34;24.10;51.00
11491;DHT22;5802;52.832;4.758;2023-07-16T04:16:01;24.10;51.00
11491;DHT22;5802;52.832;4.758;2023-07-16T04:18:28;24.10;51.10
11491;DHT22;5802;52.832;4.758;2023-07-16T04:20:55;24.10;51.10
11491;DHT22;5802;52.832;4.758;2023-07-16T04:23:23;24.10;51.10
11491;DHT22;5802;52.832;4.758;2023-07-16T04:25:51;24.10;51.10
11491;DHT22;5802;52.832;4.758;2023-07-16T04:28:19;24.10;51.10
11491;DHT22;5802;52.832;4.758;2023-07-16T04:30:46;24.10;51.10
11491;DHT22;5802;52.832;4.758;2023-07-16T04:33:12;24.10;51.10
11491;DHT22;5802;52.832;4.758;2023-07-16T04:35:39;24.10;51.10
11491;DHT22;5802;52.832;4.758;2023-07-16T04:38:06;24.10;51.10
11491;DHT22;5802;52.832;4.758;2023-07-16T04:40:34;24.10;51.10
11491;DHT22;5802;52.832;4.758;2023-07-16T04:43:01;24.10;51.10
11491;DHT22;5802;52.832;4.758;2023-07-16T04:45:28;24.10;51.10
11491;DHT22;5802;52.832;4.758;2023-07-16T04:47:54;24.10;51.10
11491;DHT22;5802;52.832;4.758;2023-07-16T04:50:21;24.10;51.20
11491;DHT22;5802;52.832;4.758;2023-07-16T04:52:48;24.10;51.20
11491;DHT22;5802;52.832;4.758;2023-07-16T04:55:14;24.10;51.20
11491;DHT22;5802;52.832;4.758;2023-07-16T04:57:43;24.10;51.20
11491;DHT22;5802;52.832;4.758;2023-07-16T05:00:10;24.10;51.20
11491;DHT22;5802;52.832;4.758;2023-07-16T05:02:37;24.10;51.20
11491;DHT22;5802;52.832;4.758;2023-07-16T05:05:04;24.10;51.20
11491;DHT22;5802;52.832;4.758;2023-07-16T05:07:31;24.10;51.20
11491;DHT22;5802;52.832;4.758;2023-07-16T05:09:58;24.10;51.80
11491;DHT22;5802;52.832;4.758;2023-07-16T05:12:24;24.10;51.20
11491;DHT22;5802;52.832;4.758;2023-07-16T05:14:52;24.10;51.20
11491;DHT22;5802;52.832;4.758;2023-07-16T05:17:19;24.10;51.20
11491;DHT22;5802;52.832;4.758;2023-07-16T05:19:46;24.10;51.20
11491;DHT22;5802;52.832;4.758;2023-07-16T05:22:12;24.10;51.20
11491;DHT22;5802;52.832;4.758;2023-07-16T05:24:39;24.10;51.20
11491;DHT22;5802;52.832;4.758;2023-07-16T05:27:06;24.10;51.10
11491;DHT22;5802;52.832;4.758;2023-07-16T05:29:33;24.10;51.20
11491;DHT22;5802;52.832;4.758;2023-07-16T05:32:02;24.10;51.10
11491;DHT22;5802;52.832;4.758;2023-07-16T05:34:29;24.10;51.70
11491;DHT22;5802;52.832;4.758;2023-07-16T05:36:55;24.10;51.10
11491;DHT22;5802;52.832;4.758;2023-07-16T05:39:22;24.10;51.10
11491;DHT22;5802;52.832;4.758;2023-07-16T05:41:49;24.10;51.10
11491;DHT22;5802;52.832;4.758;2023-07-16T05:44:16;24.20;51.10
11491;DHT22;5802;52.832;4.758;2023-07-16T05:46:42;24.20;51.10
11491;DHT22;5802;52.832;4.758;2023-07-16T05:49:11;24.20;51.10
11491;DHT22;5802;52.832;4.758;2023-07-16T05:51:37;24.10;51.70
11491;DHT22;5802;52.832;4.758;2023-07-16T05:54:04;24.20;51.10
11491;DHT22;5802;52.832;4.758;2023-07-16T05:56:32;24.20;51.10
11491;DHT22;5802;52.832;4.758;2023-07-16T05:58:58;24.20;51.10
11491;DHT22;5802;52.832;4.758;2023-07-16T06:01:25;24.20;51.10
11491;DHT22;5802;52.832;4.758;2023-07-16T06:03:52;24.20;51.20
11491;DHT22;5802;52.832;4.758;2023-07-16T06:06:20;24.20;51.10
11491;DHT22;5802;52.832;4.758;2023-07-16T06:08:47;24.20;51.10
11491;DHT22;5802;52.832;4.758;2023-07-16T06:11:14;24.20;51.00
11491;DHT22;5802;52.832;4.758;2023-07-16T06:13:41;24.20;50.90
11491;DHT22;5802;52.832;4.758;2023-07-16T06:16:08;24.20;51.60
11491;DHT22;5802;52.832;4.758;2023-07-16T06:18:35;24.30;51.00
11491;DHT22;5802;52.832;4.758;2023-07-16T06:21:02;24.30;50.90
11491;DHT22;5802;52.832;4.758;2023-07-16T06:23:30;24.30;50.90
11491;DHT22;5802;52.832;4.758;2023-07-16T06:25:57;24.30;50.80
11491;DHT22;5802;52.832;4.758;2023-07-16T06:28:24;24.30;50.80
11491;DHT22;5802;52.832;4.758;2023-07-16T06:30:51;24.40;50.80
11491;DHT22;5802;52.832;4.758;2023-07-16T06:33:18;24.40;50.80
11491;DHT22;5802;52.832;4.758;2023-07-16T06:35:45;24.40;50.70
11491;DHT22;5802;52.832;4.758;2023-07-16T06:38:13;24.50;50.70
11491;DHT22;5802;52.832;4.758;2023-07-16T06:40:45;24.50;50.60
11491;DHT22;5802;52.832;4.758;2023-07-16T06:43:12;24.50;50.60
11491;DHT22;5802;52.832;4.758;2023-07-16T06:45:39;24.50;51.20
11491;DHT22;5802;52.832;4.758;2023-07-16T06:48:06;24.50;50.60
11491;DHT22;5802;52.832;4.758;2023-07-16T06:50:32;24.50;50.50
11491;DHT22;5802;52.832;4.758;2023-07-16T06:52:59;24.60;50.50
11491;DHT22;5802;52.832;4.758;2023-07-16T06:55:26;24.60;50.40
11491;DHT22;5802;52.832;4.758;2023-07-16T06:57:54;24.60;50.40
11491;DHT22;5802;52.832;4.758;2023-07-16T07:00:21;24.70;50.30
11491;DHT22;5802;52.832;4.758;2023-07-16T07:02:47;24.70;50.30
11491;DHT22;5802;52.832;4.758;2023-07-16T07:05:14;24.70;50.20
11491;DHT22;5802;52.832;4.758;2023-07-16T07:07:41;24.80;50.20
11491;DHT22;5802;52.832;4.758;2023-07-16T07:10:09;24.80;50.10
11491;DHT22;5802;52.832;4.758;2023-07-16T07:12:36;24.80;50.10
11491;DHT22;5802;52.832;4.758;2023-07-16T07:15:05;24.80;50.00
11491;DHT22;5802;52.832;4.758;2023-07-16T07:17:32;24.90;50.10
11491;DHT22;5802;52.832;4.758;2023-07-16T07:20:00;24.90;50.00
11491;DHT22;5802;52.832;4.758;2023-07-16T07:22:26;25.00;50.00
11491;DHT22;5802;52.832;4.758;2023-07-16T07:24:53;25.00;49.90
11491;DHT22;5802;52.832;4.758;2023-07-16T07:27:20;25.00;49.90
11491;DHT22;5802;52.832;4.758;2023-07-16T07:29:46;25.10;49.80
11491;DHT22;5802;52.832;4.758;2023-07-16T07:32:18;25.10;49.70
11491;DHT22;5802;52.832;4.758;2023-07-16T07:34:45;25.20;49.70
11491;DHT22;5802;52.832;4.758;2023-07-16T07:37:12;25.20;49.70
11491;DHT22;5802;52.832;4.758;2023-07-16T07:39:39;25.20;49.50
11491;DHT22;5802;52.832;4.758;2023-07-16T07:42:06;25.30;49.50
11491;DHT22;5802;52.832;4.758;2023-07-16T07:44:33;25.30;49.40
11491;DHT22;5802;52.832;4.758;2023-07-16T07:46:59;25.40;49.40
11491;DHT22;5802;52.832;4.758;2023-07-16T07:49:27;25.50;49.40
11491;DHT22;5802;52.832;4.758;2023-07-16T07:51:54;25.50;49.30
11491;DHT22;5802;52.832;4.758;2023-07-16T07:54:21;25.50;49.20
11491;DHT22;5802;52.832;4.758;2023-07-16T07:56:47;25.60;49.20
11491;DHT22;5802;52.832;4.758;2023-07-16T07:59:14;25.60;49.10
11491;DHT22;5802;52.832;4.758;2023-07-16T08:01:41;25.60;49.00
11491;DHT22;5802;52.832;4.758;2023-07-16T08:04:07;25.60;49.00
11491;DHT22;5802;52.832;4.758;2023-07-16T08:06:35;25.60;49.00
11491;DHT22;5802;52.832;4.758;2023-07-16T08:09:02;25.70;49.00
11491;DHT22;5802;52.832;4.758;2023-07-16T08:11:30;25.60;48.90
11491;DHT22;5802;52.832;4.758;2023-07-16T08:13:56;25.60;48.90
11491;DHT22;5802;52.832;4.758;2023-07-16T08:16:23;25.60;48.90
11491;DHT22;5802;52.832;4.758;2023-07-16T08:18:50;25.70;48.90
11491;DHT22;5802;52.832;4.758;2023-07-16T08:21:16;25.70;48.90
11491;DHT22;5802;52.832;4.758;2023-07-16T08:23:46;25.70;48.90
11491;DHT22;5802;52.832;4.758;2023-07-16T08:26:13;25.70;48.80
11491;DHT22;5802;52.832;4.758;2023-07-16T08:28:40;25.80;48.90
11491;DHT22;5802;52.832;4.758;2023-07-16T08:31:06;25.80;48.80
11491;DHT22;5802;52.832;4.758;2023-07-16T08:33:33;25.90;48.70
11491;DHT22;5802;52.832;4.758;2023-07-16T08:36:00;25.90;48.50
11491;DHT22;5802;52.832;4.758;2023-07-16T08:38:26;25.90;48.50
11491;DHT22;5802;52.832;4.758;2023-07-16T08:40:55;25.90;48.50
11491;DHT22;5802;52.832;4.758;2023-07-16T08:43:22;26.00;48.40
11491;DHT22;5802;52.832;4.758;2023-07-16T08:45:49;26.00;48.30
11491;DHT22;5802;52.832;4.758;2023-07-16T08:48:17;26.10;48.30
11491;DHT22;5802;52.832;4.758;2023-07-16T08:50:45;26.10;48.10
11491;DHT22;5802;52.832;4.758;2023-07-16T08:53:14;26.20;48.00
11491;DHT22;5802;52.832;4.758;2023-07-16T08:55:42;26.20;47.70
11491;DHT22;5802;52.832;4.758;2023-07-16T08:58:12;26.20;47.60
11491;DHT22;5802;52.832;4.758;2023-07-16T09:00:40;26.20;47.40
11491;DHT22;5802;52.832;4.758;2023-07-16T09:03:07;26.20;47.40
11491;DHT22;5802;52.832;4.758;2023-07-16T09:05:34;26.20;47.40
11491;DHT22;5802;52.832;4.758;2023-07-16T09:08:01;26.20;47.40
11491;DHT22;5802;52.832;4.758;2023-07-16T09:10:29;26.20;47.40
11491;DHT22;5802;52.832;4.758;2023-07-16T09:12:58;26.10;47.40
11491;DHT22;5802;52.832;4.758;2023-07-16T09:15:27;26.10;47.40
11491;DHT22;5802;52.832;4.758;2023-07-16T09:17:54;26.10;47.60
11491;DHT22;5802;52.832;4.758;2023-07-16T09:20:21;26.20;47.70
11491;DHT22;5802;52.832;4.758;2023-07-16T09:22:49;26.20;47.70
11491;DHT22;5802;52.832;4.758;2023-07-16T09:25:16;26.20;47.70
11491;DHT22;5802;52.832;4.758;2023-07-16T09:27:43;26.20;47.60
11491;DHT22;5802;52.832;4.758;2023-07-16T09:30:15;26.20;47.70
11491;DHT22;5802;52.832;4.758;2023-07-16T09:32:43;26.30;47.60
11491;DHT22;5802;52.832;4.758;2023-07-16T09:35:11;26.30;47.60
11491;DHT22;5802;52.832;4.758;2023-07-16T09:37:38;26.40;47.50
11491;DHT22;5802;52.832;4.758;2023-07-16T09:40:06;26.40;47.50
11491;DHT22;5802;52.832;4.758;2023-07-16T09:42:37;26.40;47.40
11491;DHT22;5802;52.832;4.758;2023-07-16T09:45:05;26.40;47.40
11491;DHT22;5802;52.832;4.758;2023-07-16T09:47:32;26.40;47.40
11491;DHT22;5802;52.832;4.758;2023-07-16T09:50:01;26.40;47.40
11491;DHT22;5802;52.832;4.758;2023-07-16T09:52:27;26.40;47.30
11491;DHT22;5802;52.832;4.758;2023-07-16T09:54:55;26.40;47.30
11491;DHT22;5802;52.832;4.758;2023-07-16T09:57:23;26.40;47.40
11491;DHT22;5802;52.832;4.758;2023-07-16T09:59:53;26.40;47.30
11491;DHT22;5802;52.832;4.758;2023-07-16T10:02:20;26.40;47.40
11491;DHT22;5802;52.832;4.758;2023-07-16T10:04:47;26.40;47.40
11491;DHT22;5802;52.832;4.758;2023-07-16T10:07:23;26.40;47.40
11491;DHT22;5802;52.832;4.758;2023-07-16T10:09:52;26.30;47.40
11491;DHT22;5802;52.832;4.758;2023-07-16T10:12:21;26.30;47.40
11491;DHT22;5802;52.832;4.758;2023-07-16T10:14:49;26.30;47.50
11491;DHT22;5802;52.832;4.758;2023-07-16T10:17:17;26.30;47.50
11491;DHT22;5802;52.832;4.758;2023-07-16T10:19:48;26.30;47.50
11491;DHT22;5802;52.832;4.758;2023-07-16T10:22:15;26.30;47.60
11491;DHT22;5802;52.832;4.758;2023-07-16T10:24:51;26.30;47.70
11491;DHT22;5802;52.832;4.758;2023-07-16T10:27:27;26.30;47.70
11491;DHT22;5802;52.832;4.758;2023-07-16T10:29:54;26.30;47.80
11491;DHT22;5802;52.832;4.758;2023-07-16T10:32:21;26.20;47.80
11491;DHT22;5802;52.832;4.758;2023-07-16T10:34:48;26.30;48.60
11491;DHT22;5802;52.832;4.758;2023-07-16T10:37:14;26.20;47.90
11491;DHT22;5802;52.832;4.758;2023-07-16T10:39:47;26.20;48.00
11491;DHT22;5802;52.832;4.758;2023-07-16T10:42:15;26.20;48.10
11491;DHT22;5802;52.832;4.758;2023-07-16T10:44:43;26.20;48.20
11491;DHT22;5802;52.832;4.758;2023-07-16T10:47:17;26.20;48.80
11491;DHT22;5802;52.832;4.758;2023-07-16T10:49:45;26.20;49.20
11491;DHT22;5802;52.832;4.758;2023-07-16T10:52:12;26.20;49.60
11491;DHT22;5802;52.832;4.758;2023-07-16T10:54:39;26.30;49.70
11491;DHT22;5802;52.832;4.758;2023-07-16T10:57:08;26.20;49.70
11491;DHT22;5802;52.832;4.758;2023-07-16T10:59:37;26.30;49.80
11491;DHT22;5802;52.832;4.758;2023-07-16T11:02:05;26.30;49.80
11491;DHT22;5802;52.832;4.758;2023-07-16T11:04:35;26.30;49.80
11491;DHT22;5802;52.832;4.758;2023-07-16T11:07:04;26.30;49.80
11491;DHT22;5802;52.832;4.758;2023-07-16T11:09:32;26.30;49.70
11491;DHT22;5802;52.832;4.758;2023-07-16T11:12:05;26.30;49.60
11491;DHT22;5802;52.832;4.758;2023-07-16T11:14:34;26.30;49.60
11491;DHT22;5802;52.832;4.758;2023-07-16T11:17:05;26.30;49.60
11491;DHT22;5802;52.832;4.758;2023-07-16T11:19:33;26.30;49.30
11491;DHT22;5802;52.832;4.758;2023-07-16T11:22:00;26.30;49.50
11491;DHT22;5802;52.832;4.758;2023-07-16T11:24:28;26.30;49.10
11491;DHT22;5802;52.832;4.758;2023-07-16T11:26:55;26.30;49.00
11491;DHT22;5802;52.832;4.758;2023-07-16T11:29:23;26.30;49.20
11491;DHT22;5802;52.832;4.758;2023-07-16T11:31:51;26.40;49.10
11491;DHT22;5802;52.832;4.758;2023-07-16T11:34:20;26.40;48.90
11491;DHT22;5802;52.832;4.758;2023-07-16T11:36:49;26.40;48.80
11491;DHT22;5802;52.832;4.758;2023-07-16T11:39:16;26.40;48.80
11491;DHT22;5802;52.832;4.758;2023-07-16T11:41:54;26.40;48.80
11491;DHT22;5802;52.832;4.758;2023-07-16T11:44:20;26.40;49.00
11491;DHT22;5802;52.832;4.758;2023-07-16T11:46:47;26.40;48.90
11491;DHT22;5802;52.832;4.758;2023-07-16T11:49:15;26.50;49.10
11491;DHT22;5802;52.832;4.758;2023-07-16T11:51:42;26.50;49.00
11491;DHT22;5802;52.832;4.758;2023-07-16T11:54:10;26.50;48.80
11491;DHT22;5802;52.832;4.758;2023-07-16T11:56:37;26.50;48.70
11491;DHT22;5802;52.832;4.758;2023-07-16T11:59:03;26.50;48.50
11491;DHT22;5802;52.832;4.758;2023-07-16T12:01:30;26.60;48.40
11491;DHT22;5802;52.832;4.758;2023-07-16T12:03:59;26.60;48.40
11491;DHT22;5802;52.832;4.758;2023-07-16T12:06:27;26.60;48.20
11491;DHT22;5802;52.832;4.758;2023-07-16T12:08:54;26.60;48.10
11491;DHT22;5802;52.832;4.758;2023-07-16T12:11:21;26.60;48.30
11491;DHT22;5802;52.832;4.758;2023-07-16T12:13:49;26.60;48.30
11491;DHT22;5802;52.832;4.758;2023-07-16T12:16:15;26.60;48.20
11491;DHT22;5802;52.832;4.758;2023-07-16T12:18:42;26.70;48.10
11491;DHT22;5802;52.832;4.758;2023-07-16T12:21:09;26.70;48.10
11491;DHT22;5802;52.832;4.758;2023-07-16T12:23:37;26.70;48.00
11491;DHT22;5802;52.832;4.758;2023-07-16T12:26:04;26.70;47.80
11491;DHT22;5802;52.832;4.758;2023-07-16T12:28:30;26.70;47.50
11491;DHT22;5802;52.832;4.758;2023-07-16T12:30:57;26.70;47.40
11491;DHT22;5802;52.832;4.758;2023-07-16T12:33:24;26.80;47.30
11491;DHT22;5802;52.832;4.758;2023-07-16T12:35:50;26.80;47.20
11491;DHT22;5802;52.832;4.758;2023-07-16T12:38:17;26.80;47.10
11491;DHT22;5802;52.832;4.758;2023-07-16T12:40:45;26.80;47.00
11491;DHT22;5802;52.832;4.758;2023-07-16T12:43:12;26.80;46.90
11491;DHT22;5802;52.832;4.758;2023-07-16T12:45:39;26.90;46.90
11491;DHT22;5802;52.832;4.758;2023-07-16T12:48:06;26.90;47.00
11491;DHT22;5802;52.832;4.758;2023-07-16T12:50:32;26.90;47.00
11491;DHT22;5802;52.832;4.758;2023-07-16T12:52:59;26.90;46.80
11491;DHT22;5802;52.832;4.758;2023-07-16T12:55:26;26.90;46.70
11491;DHT22;5802;52.832;4.758;2023-07-16T12:57:54;26.90;46.50
11491;DHT22;5802;52.832;4.758;2023-07-16T13:00:20;26.90;46.40
11491;DHT22;5802;52.832;4.758;2023-07-16T13:02:47;26.90;46.50
11491;DHT22;5802;52.832;4.758;2023-07-16T13:05:14;26.90;46.30
11491;DHT22;5802;52.832;4.758;2023-07-16T13:07:40;26.90;46.20
11491;DHT22;5802;52.832;4.758;2023-07-16T13:10:09;26.90;46.20
11491;DHT22;5802;52.832;4.758;2023-07-16T13:12:36;26.90;46.30
11491;DHT22;5802;52.832;4.758;2023-07-16T13:15:04;26.90;46.20
11491;DHT22;5802;52.832;4.758;2023-07-16T13:17:31;26.90;46.20
11491;DHT22;5802;52.832;4.758;2023-07-16T13:19:58;26.90;46.20
11491;DHT22;5802;52.832;4.758;2023-07-16T13:22:25;26.90;46.20
11491;DHT22;5802;52.832;4.758;2023-07-16T13:24:51;26.90;46.20
11491;DHT22;5802;52.832;4.758;2023-07-16T13:27:22;26.90;46.10
11491;DHT22;5802;52.832;4.758;2023-07-16T13:29:49;26.90;46.00
11491;DHT22;5802;52.832;4.758;2023-07-16T13:32:18;26.90;46.10
11491;DHT22;5802;52.832;4.758;2023-07-16T13:34:44;27.00;46.10
11491;DHT22;5802;52.832;4.758;2023-07-16T13:37:11;27.00;46.20
11491;DHT22;5802;52.832;4.758;2023-07-16T13:39:38;27.00;46.20
11491;DHT22;5802;52.832;4.758;2023-07-16T13:42:05;27.00;46.10
11491;DHT22;5802;52.832;4.758;2023-07-16T13:44:32;27.00;46.00
11491;DHT22;5802;52.832;4.758;2023-07-16T13:46:59;27.00;46.00
11491;DHT22;5802;52.832;4.758;2023-07-16T13:49:27;27.00;46.00
11491;DHT22;5802;52.832;4.758;2023-07-16T13:51:54;27.00;45.90
11491;DHT22;5802;52.832;4.758;2023-07-16T13:54:20;27.10;46.00
11491;DHT22;5802;52.832;4.758;2023-07-16T13:56:47;27.10;45.90
11491;DHT22;5802;52.832;4.758;2023-07-16T13:59:14;27.10;46.10
11491;DHT22;5802;52.832;4.758;2023-07-16T14:01:41;27.10;45.80
11491;DHT22;5802;52.832;4.758;2023-07-16T14:04:08;27.10;45.80
11491;DHT22;5802;52.832;4.758;2023-07-16T14:06:36;27.10;45.70
11491;DHT22;5802;52.832;4.758;2023-07-16T14:09:03;27.20;45.60
11491;DHT22;5802;52.832;4.758;2023-07-16T14:11:30;27.20;45.50
11491;DHT22;5802;52.832;4.758;2023-07-16T14:13:57;27.20;45.60
11491;DHT22;5802;52.832;4.758;2023-07-16T14:16:24;27.20;45.60
11491;DHT22;5802;52.832;4.758;2023-07-16T14:18:51;27.20;45.60
11491;DHT22;5802;52.832;4.758;2023-07-16T14:21:19;27.20;45.70
11491;DHT22;5802;52.832;4.758;2023-07-16T14:23:47;27.20;45.70
11491;DHT22;5802;52.832;4.758;2023-07-16T14:26:14;27.20;45.70
11491;DHT22;5802;52.832;4.758;2023-07-16T14:28:41;27.20;45.20
11491;DHT22;5802;52.832;4.758;2023-07-16T14:31:08;27.20;45.10
11491;DHT22;5802;52.832;4.758;2023-07-16T14:33:34;27.20;45.10
11491;DHT22;5802;52.832;4.758;2023-07-16T14:36:01;27.20;45.20
11491;DHT22;5802;52.832;4.758;2023-07-16T14:38:28;27.20;45.20
11491;DHT22;5802;52.832;4.758;2023-07-16T14:40:56;27.20;45.30
11491;DHT22;5802;52.832;4.758;2023-07-16T14:43:23;27.20;45.20
11491;DHT22;5802;52.832;4.758;2023-07-16T14:45:49;27.20;45.30
11491;DHT22;5802;52.832;4.758;2023-07-16T14:48:16;27.20;45.20
11491;DHT22;5802;52.832;4.758;2023-07-16T14:50:43;27.20;45.40
11491;DHT22;5802;52.832;4.758;2023-07-16T14:53:10;27.20;45.40
11491;DHT22;5802;52.832;4.758;2023-07-16T14:55:38;27.20;45.40
11491;DHT22;5802;52.832;4.758;2023-07-16T14:58:06;27.20;45.40
11491;DHT22;5802;52.832;4.758;2023-07-16T15:00:33;27.20;45.20
11491;DHT22;5802;52.832;4.758;2023-07-16T15:03:00;27.20;45.20
11491;DHT22;5802;52.832;4.758;2023-07-16T15:05:27;27.20;45.20
11491;DHT22;5802;52.832;4.758;2023-07-16T15:07:54;27.20;45.20
11491;DHT22;5802;52.832;4.758;2023-07-16T15:10:20;27.20;45.20
11491;DHT22;5802;52.832;4.758;2023-07-16T15:12:48;27.20;45.10
11491;DHT22;5802;52.832;4.758;2023-07-16T15:15:16;27.20;45.10
11491;DHT22;5802;52.832;4.758;2023-07-16T15:17:43;27.20;45.00
11491;DHT22;5802;52.832;4.758;2023-07-16T15:20:12;27.20;45.00
11491;DHT22;5802;52.832;4.758;2023-07-16T15:22:38;27.20;45.00
11491;DHT22;5802;52.832;4.758;2023-07-16T15:25:06;27.20;44.90
11491;DHT22;5802;52.832;4.758;2023-07-16T15:27:33;27.20;44.90
11491;DHT22;5802;52.832;4.758;2023-07-16T15:30:00;27.20;44.90
11491;DHT22;5802;52.832;4.758;2023-07-16T15:32:29;27.20;44.70
11491;DHT22;5802;52.832;4.758;2023-07-16T15:34:56;27.30;44.70
11491;DHT22;5802;52.832;4.758;2023-07-16T15:37:22;27.30;44.60
11491;DHT22;5802;52.832;4.758;2023-07-16T15:39:49;27.20;44.40
11491;DHT22;5802;52.832;4.758;2023-07-16T15:42:16;27.20;44.30
11491;DHT22;5802;52.832;4.758;2023-07-16T15:44:42;27.20;44.30
11491;DHT22;5802;52.832;4.758;2023-07-16T15:47:09;27.20;44.20
11491;DHT22;5802;52.832;4.758;2023-07-16T15:49:37;27.20;44.30